sensor_id;sensor_type;location;lat;lon;timestamp;temperature;humidity
13711;DHT22;6927;51.256;9.410;2023-07-28T00:02:15;16.60;99.90
13711;DHT22;6927;51.256;9.410;2023-07-28T00:04:41;16.60;99.90
13711;DHT22;6927;51.256;9.410;2023-07-28T00:07:07;16.60;99.90
13711;DHT22;6927;51.256;9.410;2023-07-28T00:09:32;16.60;99.90
13711;DHT22;6927;51.256;9.410;2023-07-28T00:15:20;16.70;99.90
13711;DHT22;6927;51.256;9.410;2023-07-28T00:17:45;16.60;99.90
13711;DHT22;6927;51.256;9.410;2023-07-28T00:20:11;16.60;99.90
13711;DHT22;6927;51.256;9.410;2023-07-28T00:22:37;16.60;99.90
13711;DHT22;6927;51.256;9.410;2023-07-28T00:25:02;16.60;99.90
13711;DHT22;6927;51.256;9.410;2023-07-28T00:27:28;16.60;99.90
13711;DHT22;6927;51.256;9.410;2023-07-28T00:29:54;16.60;99.90
13711;DHT22;6927;51.256;9.410;2023-07-28T00:32:19;16.60;99.90
13711;DHT22;6927;51.256;9.410;2023-07-28T00:34:45;16.60;99.90
13711;DHT22;6927;51.256;9.410;2023-07-28T00:37:10;16.60;99.90
13711;DHT22;6927;51.256;9.410;2023-07-28T00:39:36;16.60;99.90
13711;DHT22;6927;51.256;9.410;2023-07-28T00:42:01;16.60;99.90
13711;DHT22;6927;51.256;9.410;2023-07-28T00:44:27;16.60;99.90
13711;DHT22;6927;51.256;9.410;2023-07-28T00:46:53;16.60;99.90
13711;DHT22;6927;51.256;9.410;2023-07-28T00:49:18;16.60;99.90
13711;DHT22;6927;51.256;9.410;2023-07-28T00:51:45;16.60;99.90
13711;DHT22;6927;51.256;9.410;2023-07-28T00:54:11;16.60;99.90
13711;DHT22;6927;51.256;9.410;2023-07-28T00:56:37;16.60;99.90
13711;DHT22;6927;51.256;9.410;2023-07-28T00:59:03;16.60;99.90
13711;DHT22;6927;51.256;9.410;2023-07-28T01:01:28;16.60;99.90
13711;DHT22;6927;51.256;9.410;2023-07-28T01:03:54;16.60;99.90
13711;DHT22;6927;51.256;9.410;2023-07-28T01:06:48;16.60;99.90
13711;DHT22;6927;51.256;9.410;2023-07-28T01:09:20;16.50;99.90
13711;DHT22;6927;51.256;9.410;2023-07-28T01:11:57;16.50;99.90
13711;DHT22;6927;51.256;9.410;2023-07-28T01:14:23;16.50;99.90
13711;DHT22;6927;51.256;9.410;2023-07-28T01:16:48;16.50;99.90
13711;DHT22;6927;51.256;9.410;2023-07-28T01:19:17;16.50;99.90
13711;DHT22;6927;51.256;9.410;2023-07-28T01:21:52;16.50;99.90
13711;DHT22;6927;51.256;9.410;2023-07-28T01:24:44;16.50;99.90
13711;DHT22;6927;51.256;9.410;2023-07-28T01:27:11;16.50;99.90
13711;DHT22;6927;51.256;9.410;2023-07-28T01:29:37;16.60;99.90
13711;DHT22;6927;51.256;9.410;2023-07-28T01:32:04;16.50;99.90
13711;DHT22;6927;51.256;9.410;2023-07-28T01:34:29;16.50;99.90
13711;DHT22;6927;51.256;9.410;2023-07-28T01:36:55;16.50;99.90
13711;DHT22;6927;51.256;9.410;2023-07-28T01:39:20;16.50;99.90
13711;DHT22;6927;51.256;9.410;2023-07-28T01:41:46;16.50;99.90
13711;DHT22;6927;51.256;9.410;2023-07-28T01:44:12;16.50;99.90
13711;DHT22;6927;51.256;9.410;2023-07-28T01:46:38;16.50;99.90
13711;DHT22;6927;51.256;9.410;2023-07-28T01:49:04;16.50;99.90
13711;DHT22;6927;51.256;9.410;2023-07-28T01:51:30;16.40;99.90
13711;DHT22;6927;51.256;9.410;2023-07-28T01:53:55;16.40;99.90
13711;DHT22;6927;51.256;9.410;2023-07-28T01:56:21;16.40;99.90
13711;DHT22;6927;51.256;9.410;2023-07-28T01:58:47;16.40;99.90
13711;DHT22;6927;51.256;9.410;2023-07-28T02:01:13;16.30;99.90
13711;DHT22;6927;51.256;9.410;2023-07-28T02:03:38;16.30;99.90
13711;DHT22;6927;51.256;9.410;2023-07-28T02:06:04;16.30;99.90
13711;DHT22;6927;51.256;9.410;2023-07-28T02:08:29;16.30;99.90
13711;DHT22;6927;51.256;9.410;2023-07-28T02:10:55;16.30;99.90
13711;DHT22;6927;51.256;9.410;2023-07-28T02:13:20;16.30;99.90
13711;DHT22;6927;51.256;9.410;2023-07-28T02:15:46;16.30;99.90
13711;DHT22;6927;51.256;9.410;2023-07-28T02:18:11;16.30;99.90
13711;DHT22;6927;51.256;9.410;2023-07-28T02:20:37;16.30;99.90
13711;DHT22;6927;51.256;9.410;2023-07-28T02:23:04;16.20;99.90
13711;DHT22;6927;51.256;9.410;2023-07-28T02:25:30;16.20;99.90
13711;DHT22;6927;51.256;9.410;2023-07-28T02:27:55;16.20;99.90
13711;DHT22;6927;51.256;9.410;2023-07-28T02:30:21;16.10;99.90
13711;DHT22;6927;51.256;9.410;2023-07-28T02:32:46;16.10;99.90
13711;DHT22;6927;51.256;9.410;2023-07-28T02:35:12;16.10;99.90
13711;DHT22;6927;51.256;9.410;2023-07-28T02:37:38;16.10;99.90
13711;DHT22;6927;51.256;9.410;2023-07-28T02:40:04;16.10;99.90
13711;DHT22;6927;51.256;9.410;2023-07-28T02:42:29;16.10;99.90
13711;DHT22;6927;51.256;9.410;2023-07-28T02:44:55;16.10;99.90
13711;DHT22;6927;51.256;9.410;2023-07-28T02:47:21;16.10;99.90
13711;DHT22;6927;51.256;9.410;2023-07-28T02:49:47;16.10;99.90
13711;DHT22;6927;51.256;9.410;2023-07-28T02:52:12;16.00;99.90
13711;DHT22;6927;51.256;9.410;2023-07-28T02:54:38;16.00;99.90
13711;DHT22;6927;51.256;9.410;2023-07-28T02:57:04;16.00;99.90
13711;DHT22;6927;51.256;9.410;2023-07-28T02:59:29;16.00;99.90
13711;DHT22;6927;51.256;9.410;2023-07-28T03:01:55;16.00;99.90
13711;DHT22;6927;51.256;9.410;2023-07-28T03:04:22;16.00;99.90
13711;DHT22;6927;51.256;9.410;2023-07-28T03:06:48;15.90;99.90
13711;DHT22;6927;51.256;9.410;2023-07-28T03:09:14;15.90;99.90
13711;DHT22;6927;51.256;9.410;2023-07-28T03:11:43;15.90;99.90
13711;DHT22;6927;51.256;9.410;2023-07-28T03:14:09;15.90;99.90
13711;DHT22;6927;51.256;9.410;2023-07-28T03:16:35;15.90;99.90
13711;DHT22;6927;51.256;9.410;2023-07-28T03:19:01;15.90;99.90
13711;DHT22;6927;51.256;9.410;2023-07-28T03:21:29;15.90;99.90
13711;DHT22;6927;51.256;9.410;2023-07-28T03:23:55;15.90;99.90
13711;DHT22;6927;51.256;9.410;2023-07-28T03:26:21;15.80;99.90
13711;DHT22;6927;51.256;9.410;2023-07-28T03:28:46;15.80;99.90
13711;DHT22;6927;51.256;9.410;2023-07-28T03:31:12;15.80;99.90
13711;DHT22;6927;51.256;9.410;2023-07-28T03:33:37;15.80;99.90
13711;DHT22;6927;51.256;9.410;2023-07-28T03:36:03;15.80;99.90
13711;DHT22;6927;51.256;9.410;2023-07-28T03:38:28;15.80;99.90
13711;DHT22;6927;51.256;9.410;2023-07-28T03:40:54;15.80;99.90
13711;DHT22;6927;51.256;9.410;2023-07-28T03:43:20;15.80;99.90
13711;DHT22;6927;51.256;9.410;2023-07-28T03:45:46;15.80;99.90
13711;DHT22;6927;51.256;9.410;2023-07-28T03:48:12;15.80;99.90
13711;DHT22;6927;51.256;9.410;2023-07-28T03:50:37;15.80;99.90
13711;DHT22;6927;51.256;9.410;2023-07-28T03:53:03;15.80;99.90
13711;DHT22;6927;51.256;9.410;2023-07-28T03:55:29;15.80;99.90
13711;DHT22;6927;51.256;9.410;2023-07-28T03:57:54;15.80;99.90
13711;DHT22;6927;51.256;9.410;2023-07-28T04:00:20;15.80;99.90
13711;DHT22;6927;51.256;9.410;2023-07-28T04:02:46;15.80;99.90
13711;DHT22;6927;51.256;9.410;2023-07-28T04:05:11;15.80;99.90
13711;DHT22;6927;51.256;9.410;2023-07-28T04:07:37;15.80;99.90
13711;DHT22;6927;51.256;9.410;2023-07-28T04:10:04;15.80;99.90
13711;DHT22;6927;51.256;9.410;2023-07-28T04:12:30;15.80;99.90
13711;DHT22;6927;51.256;9.410;2023-07-28T04:14:55;15.80;99.90
13711;DHT22;6927;51.256;9.410;2023-07-28T04:17:21;15.80;99.90
13711;DHT22;6927;51.256;9.410;2023-07-28T04:19:47;15.80;99.90
13711;DHT22;6927;51.256;9.410;2023-07-28T04:22:12;15.80;99.90
13711;DHT22;6927;51.256;9.410;2023-07-28T04:24:38;15.90;99.90
13711;DHT22;6927;51.256;9.410;2023-07-28T04:27:04;15.90;99.90
13711;DHT22;6927;51.256;9.410;2023-07-28T04:29:30;15.90;99.90
13711;DHT22;6927;51.256;9.410;2023-07-28T04:31:55;15.90;99.90
13711;DHT22;6927;51.256;9.410;2023-07-28T04:34:21;15.90;99.90
13711;DHT22;6927;51.256;9.410;2023-07-28T04:36:46;15.90;99.90
13711;DHT22;6927;51.256;9.410;2023-07-28T04:39:12;16.00;99.90
13711;DHT22;6927;51.256;9.410;2023-07-28T04:41:38;16.10;99.90
13711;DHT22;6927;51.256;9.410;2023-07-28T04:44:03;16.10;99.90
13711;DHT22;6927;51.256;9.410;2023-07-28T04:46:29;16.10;99.90
13711;DHT22;6927;51.256;9.410;2023-07-28T04:48:54;16.10;99.90
13711;DHT22;6927;51.256;9.410;2023-07-28T04:51:20;16.10;99.90
13711;DHT22;6927;51.256;9.410;2023-07-28T04:53:46;16.20;99.90
13711;DHT22;6927;51.256;9.410;2023-07-28T04:56:11;16.20;99.90
13711;DHT22;6927;51.256;9.410;2023-07-28T04:58:37;16.30;99.90
13711;DHT22;6927;51.256;9.410;2023-07-28T05:01:03;16.20;99.90
13711;DHT22;6927;51.256;9.410;2023-07-28T05:03:29;16.30;99.90
13711;DHT22;6927;51.256;9.410;2023-07-28T05:05:54;16.30;99.90
13711;DHT22;6927;51.256;9.410;2023-07-28T05:08:20;16.40;99.90
13711;DHT22;6927;51.256;9.410;2023-07-28T05:10:45;16.40;99.90
13711;DHT22;6927;51.256;9.410;2023-07-28T05:13:11;16.40;99.90
13711;DHT22;6927;51.256;9.410;2023-07-28T05:15:36;16.40;99.90
13711;DHT22;6927;51.256;9.410;2023-07-28T05:18:02;16.40;99.90
13711;DHT22;6927;51.256;9.410;2023-07-28T05:20:28;16.40;99.90
13711;DHT22;6927;51.256;9.410;2023-07-28T05:22:53;16.40;99.90
13711;DHT22;6927;51.256;9.410;2023-07-28T05:25:19;16.50;99.90
13711;DHT22;6927;51.256;9.410;2023-07-28T05:27:44;16.50;99.90
13711;DHT22;6927;51.256;9.410;2023-07-28T05:30:10;16.50;99.90
13711;DHT22;6927;51.256;9.410;2023-07-28T05:32:36;16.50;99.90
13711;DHT22;6927;51.256;9.410;2023-07-28T05:35:01;16.60;99.90
13711;DHT22;6927;51.256;9.410;2023-07-28T05:37:27;16.50;99.90
13711;DHT22;6927;51.256;9.410;2023-07-28T05:39:52;16.50;99.90
13711;DHT22;6927;51.256;9.410;2023-07-28T05:42:18;16.60;99.90
13711;DHT22;6927;51.256;9.410;2023-07-28T05:44:44;16.60;99.90
13711;DHT22;6927;51.256;9.410;2023-07-28T05:47:09;16.60;99.90
13711;DHT22;6927;51.256;9.410;2023-07-28T05:49:35;16.60;99.90
13711;DHT22;6927;51.256;9.410;2023-07-28T05:52:00;16.60;99.90
13711;DHT22;6927;51.256;9.410;2023-07-28T05:54:26;16.70;99.90
13711;DHT22;6927;51.256;9.410;2023-07-28T05:56:52;16.70;99.90
13711;DHT22;6927;51.256;9.410;2023-07-28T05:59:17;16.70;99.90
13711;DHT22;6927;51.256;9.410;2023-07-28T06:01:43;16.80;99.90
13711;DHT22;6927;51.256;9.410;2023-07-28T06:04:08;16.80;99.90
13711;DHT22;6927;51.256;9.410;2023-07-28T06:06:34;16.80;99.90
13711;DHT22;6927;51.256;9.410;2023-07-28T06:08:59;16.80;99.90
13711;DHT22;6927;51.256;9.410;2023-07-28T06:11:25;16.90;99.90
13711;DHT22;6927;51.256;9.410;2023-07-28T06:13:51;16.90;99.90
13711;DHT22;6927;51.256;9.410;2023-07-28T06:16:17;16.90;99.90
13711;DHT22;6927;51.256;9.410;2023-07-28T06:18:42;17.00;99.90
13711;DHT22;6927;51.256;9.410;2023-07-28T06:21:08;17.10;99.90
13711;DHT22;6927;51.256;9.410;2023-07-28T06:23:33;17.20;99.90
13711;DHT22;6927;51.256;9.410;2023-07-28T06:25:59;17.20;99.90
13711;DHT22;6927;51.256;9.410;2023-07-28T06:28:25;17.20;99.90
13711;DHT22;6927;51.256;9.410;2023-07-28T06:30:57;17.20;99.90
13711;DHT22;6927;51.256;9.410;2023-07-28T06:33:24;17.30;99.90
13711;DHT22;6927;51.256;9.410;2023-07-28T06:35:50;17.30;99.90
13711;DHT22;6927;51.256;9.410;2023-07-28T06:38:15;17.40;99.90
13711;DHT22;6927;51.256;9.410;2023-07-28T06:40:41;17.40;99.90
13711;DHT22;6927;51.256;9.410;2023-07-28T06:43:06;17.50;99.90
13711;DHT22;6927;51.256;9.410;2023-07-28T06:45:33;17.60;99.90
13711;DHT22;6927;51.256;9.410;2023-07-28T06:47:59;17.70;99.90
13711;DHT22;6927;51.256;9.410;2023-07-28T06:50:24;17.70;99.90
13711;DHT22;6927;51.256;9.410;2023-07-28T06:52:50;17.70;99.90
13711;DHT22;6927;51.256;9.410;2023-07-28T06:55:18;17.80;99.90
13711;DHT22;6927;51.256;9.410;2023-07-28T06:57:46;17.80;99.90
13711;DHT22;6927;51.256;9.410;2023-07-28T07:00:12;17.80;99.90
13711;DHT22;6927;51.256;9.410;2023-07-28T07:02:38;17.90;99.90
13711;DHT22;6927;51.256;9.410;2023-07-28T07:05:04;17.90;99.90
13711;DHT22;6927;51.256;9.410;2023-07-28T07:07:29;17.90;99.90
13711;DHT22;6927;51.256;9.410;2023-07-28T07:09:55;18.00;99.90
13711;DHT22;6927;51.256;9.410;2023-07-28T07:12:21;18.00;99.90
13711;DHT22;6927;51.256;9.410;2023-07-28T07:14:47;18.00;99.90
13711;DHT22;6927;51.256;9.410;2023-07-28T07:17:12;18.00;99.90
13711;DHT22;6927;51.256;9.410;2023-07-28T07:19:38;18.10;99.90
13711;DHT22;6927;51.256;9.410;2023-07-28T07:22:05;18.30;99.90
13711;DHT22;6927;51.256;9.410;2023-07-28T07:24:31;18.40;99.90
13711;DHT22;6927;51.256;9.410;2023-07-28T07:26:56;18.40;99.90
13711;DHT22;6927;51.256;9.410;2023-07-28T07:29:22;18.50;99.90
13711;DHT22;6927;51.256;9.410;2023-07-28T07:31:48;18.80;99.90
13711;DHT22;6927;51.256;9.410;2023-07-28T07:34:14;18.90;99.90
13711;DHT22;6927;51.256;9.410;2023-07-28T07:36:39;19.10;99.90
13711;DHT22;6927;51.256;9.410;2023-07-28T07:39:05;19.20;99.90
13711;DHT22;6927;51.256;9.410;2023-07-28T07:41:31;19.20;99.90
13711;DHT22;6927;51.256;9.410;2023-07-28T07:43:56;19.20;99.90
13711;DHT22;6927;51.256;9.410;2023-07-28T07:46:22;19.10;99.90
13711;DHT22;6927;51.256;9.410;2023-07-28T07:48:49;19.10;99.90
13711;DHT22;6927;51.256;9.410;2023-07-28T07:51:15;19.00;99.90
13711;DHT22;6927;51.256;9.410;2023-07-28T07:53:40;19.00;99.90
13711;DHT22;6927;51.256;9.410;2023-07-28T07:56:06;18.90;99.90
13711;DHT22;6927;51.256;9.410;2023-07-28T07:58:33;18.90;99.90
13711;DHT22;6927;51.256;9.410;2023-07-28T08:00:59;18.80;99.90
13711;DHT22;6927;51.256;9.410;2023-07-28T08:03:25;18.70;99.90
13711;DHT22;6927;51.256;9.410;2023-07-28T08:05:51;18.70;99.90
13711;DHT22;6927;51.256;9.410;2023-07-28T08:08:17;18.80;99.90
13711;DHT22;6927;51.256;9.410;2023-07-28T08:10:45;18.80;99.90
13711;DHT22;6927;51.256;9.410;2023-07-28T08:13:11;18.80;99.90
13711;DHT22;6927;51.256;9.410;2023-07-28T08:15:36;18.80;99.90
13711;DHT22;6927;51.256;9.410;2023-07-28T08:18:02;18.90;99.90
13711;DHT22;6927;51.256;9.410;2023-07-28T08:20:27;18.90;99.90
13711;DHT22;6927;51.256;9.410;2023-07-28T08:22:53;19.00;99.90
13711;DHT22;6927;51.256;9.410;2023-07-28T08:25:19;19.10;99.90
13711;DHT22;6927;51.256;9.410;2023-07-28T08:27:44;19.10;99.90
13711;DHT22;6927;51.256;9.410;2023-07-28T08:30:10;19.20;99.90
13711;DHT22;6927;51.256;9.410;2023-07-28T08:32:36;19.20;99.90
13711;DHT22;6927;51.256;9.410;2023-07-28T08:35:03;19.20;99.90
13711;DHT22;6927;51.256;9.410;2023-07-28T08:37:29;19.20;99.90
13711;DHT22;6927;51.256;9.410;2023-07-28T08:39:54;19.30;99.90
13711;DHT22;6927;51.256;9.410;2023-07-28T08:42:21;19.40;99.90
13711;DHT22;6927;51.256;9.410;2023-07-28T08:44:47;19.50;99.90
13711;DHT22;6927;51.256;9.410;2023-07-28T08:47:13;19.50;99.90
13711;DHT22;6927;51.256;9.410;2023-07-28T08:49:39;19.70;99.90
13711;DHT22;6927;51.256;9.410;2023-07-28T08:52:05;19.80;99.90
13711;DHT22;6927;51.256;9.410;2023-07-28T08:54:31;19.90;99.90
13711;DHT22;6927;51.256;9.410;2023-07-28T08:57:00;19.90;99.90
13711;DHT22;6927;51.256;9.410;2023-07-28T08:59:27;20.00;99.90
13711;DHT22;6927;51.256;9.410;2023-07-28T09:01:54;20.20;99.90
13711;DHT22;6927;51.256;9.410;2023-07-28T09:04:21;20.30;99.90
13711;DHT22;6927;51.256;9.410;2023-07-28T09:06:47;20.50;99.90
13711;DHT22;6927;51.256;9.410;2023-07-28T09:09:14;20.70;99.90
13711;DHT22;6927;51.256;9.410;2023-07-28T09:11:48;20.90;99.90
13711;DHT22;6927;51.256;9.410;2023-07-28T09:14:14;21.00;99.90
13711;DHT22;6927;51.256;9.410;2023-07-28T09:16:42;21.30;99.90
13711;DHT22;6927;51.256;9.410;2023-07-28T09:19:08;21.80;99.90
13711;DHT22;6927;51.256;9.410;2023-07-28T09:21:34;22.00;99.90
13711;DHT22;6927;51.256;9.410;2023-07-28T09:24:01;21.90;99.90
13711;DHT22;6927;51.256;9.410;2023-07-28T09:26:44;21.60;99.90
13711;DHT22;6927;51.256;9.410;2023-07-28T09:29:20;21.40;99.90
13711;DHT22;6927;51.256;9.410;2023-07-28T09:31:48;21.20;99.90
13711;DHT22;6927;51.256;9.410;2023-07-28T09:34:24;21.10;99.90
13711;DHT22;6927;51.256;9.410;2023-07-28T09:36:58;21.00;99.90
13711;DHT22;6927;51.256;9.410;2023-07-28T09:39:24;20.90;99.90
13711;DHT22;6927;51.256;9.410;2023-07-28T09:41:51;20.80;99.90
13711;DHT22;6927;51.256;9.410;2023-07-28T09:44:17;20.80;99.90
13711;DHT22;6927;51.256;9.410;2023-07-28T09:46:54;20.80;99.90
13711;DHT22;6927;51.256;9.410;2023-07-28T09:49:28;20.90;99.90
13711;DHT22;6927;51.256;9.410;2023-07-28T09:51:58;21.00;99.90
13711;DHT22;6927;51.256;9.410;2023-07-28T09:54:25;21.00;99.90
13711;DHT22;6927;51.256;9.410;2023-07-28T09:56:55;21.00;99.90
13711;DHT22;6927;51.256;9.410;2023-07-28T09:59:37;21.00;99.90
13711;DHT22;6927;51.256;9.410;2023-07-28T10:02:04;21.10;99.90
13711;DHT22;6927;51.256;9.410;2023-07-28T10:04:31;21.40;99.90
13711;DHT22;6927;51.256;9.410;2023-07-28T10:06:57;21.70;99.90
13711;DHT22;6927;51.256;9.410;2023-07-28T10:09:35;22.20;99.90
13711;DHT22;6927;51.256;9.410;2023-07-28T10:12:02;23.20;99.90
13711;DHT22;6927;51.256;9.410;2023-07-28T10:14:40;24.20;99.90
13711;DHT22;6927;51.256;9.410;2023-07-28T10:17:15;25.40;99.90
13711;DHT22;6927;51.256;9.410;2023-07-28T10:20:01;26.10;99.90
13711;DHT22;6927;51.256;9.410;2023-07-28T10:22:27;25.60;99.90
13711;DHT22;6927;51.256;9.410;2023-07-28T10:27:30;24.10;99.90
13711;DHT22;6927;51.256;9.410;2023-07-28T10:30:01;23.90;99.90
13711;DHT22;6927;51.256;9.410;2023-07-28T10:32:37;23.80;99.90
13711;DHT22;6927;51.256;9.410;2023-07-28T10:35:08;23.60;99.90
13711;DHT22;6927;51.256;9.410;2023-07-28T10:37:37;23.20;99.90
13711;DHT22;6927;51.256;9.410;2023-07-28T10:42:47;22.80;99.90
13711;DHT22;6927;51.256;9.410;2023-07-28T10:45:13;22.80;99.90
13711;DHT22;6927;51.256;9.410;2023-07-28T10:54:43;22.80;99.90
13711;DHT22;6927;51.256;9.410;2023-07-28T10:57:11;22.60;99.90
13711;DHT22;6927;51.256;9.410;2023-07-28T10:59:37;22.80;99.90
13711;DHT22;6927;51.256;9.410;2023-07-28T11:02:02;23.00;99.90
13711;DHT22;6927;51.256;9.410;2023-07-28T11:04:28;23.20;99.90
13711;DHT22;6927;51.256;9.410;2023-07-28T11:06:54;23.00;99.90
13711;DHT22;6927;51.256;9.410;2023-07-28T11:09:22;23.20;99.90
13711;DHT22;6927;51.256;9.410;2023-07-28T11:11:49;23.90;99.90
13711;DHT22;6927;51.256;9.410;2023-07-28T11:14:16;24.00;99.90
13711;DHT22;6927;51.256;9.410;2023-07-28T11:16:43;23.90;99.90
13711;DHT22;6927;51.256;9.410;2023-07-28T11:19:11;23.70;99.90
13711;DHT22;6927;51.256;9.410;2023-07-28T11:21:41;23.40;99.90
13711;DHT22;6927;51.256;9.410;2023-07-28T11:24:08;23.60;99.90
13711;DHT22;6927;51.256;9.410;2023-07-28T11:26:38;23.80;99.90
13711;DHT22;6927;51.256;9.410;2023-07-28T11:29:04;23.90;99.90
13711;DHT22;6927;51.256;9.410;2023-07-28T11:31:30;23.90;99.90
13711;DHT22;6927;51.256;9.410;2023-07-28T11:33:56;24.40;99.90
13711;DHT22;6927;51.256;9.410;2023-07-28T11:38:48;25.20;99.90
13711;DHT22;6927;51.256;9.410;2023-07-28T11:41:15;25.10;99.90
13711;DHT22;6927;51.256;9.410;2023-07-28T11:43:41;25.00;99.90
13711;DHT22;6927;51.256;9.410;2023-07-28T11:49:18;25.50;99.90
13711;DHT22;6927;51.256;9.410;2023-07-28T11:51:48;25.40;99.90
13711;DHT22;6927;51.256;9.410;2023-07-28T11:54:16;25.50;99.90
13711;DHT22;6927;51.256;9.410;2023-07-28T11:56:46;25.50;99.90
13711;DHT22;6927;51.256;9.410;2023-07-28T11:59:15;25.30;99.90
13711;DHT22;6927;51.256;9.410;2023-07-28T12:01:58;24.90;99.90
13711;DHT22;6927;51.256;9.410;2023-07-28T12:04:25;24.60;99.90
13711;DHT22;6927;51.256;9.410;2023-07-28T12:07:11;24.60;99.90
13711;DHT22;6927;51.256;9.410;2023-07-28T12:09:47;25.40;99.90
13711;DHT22;6927;51.256;9.410;2023-07-28T12:12:22;25.70;99.90
13711;DHT22;6927;51.256;9.410;2023-07-28T12:14:48;25.60;99.90
13711;DHT22;6927;51.256;9.410;2023-07-28T12:17:18;25.80;99.90
13711;DHT22;6927;51.256;9.410;2023-07-28T12:20:03;25.80;99.90
13711;DHT22;6927;51.256;9.410;2023-07-28T12:22:40;25.50;99.90
13711;DHT22;6927;51.256;9.410;2023-07-28T12:25:07;25.20;99.90
13711;DHT22;6927;51.256;9.410;2023-07-28T12:27:32;24.80;99.90
13711;DHT22;6927;51.256;9.410;2023-07-28T12:29:58;24.60;99.90
13711;DHT22;6927;51.256;9.410;2023-07-28T12:32:24;24.80;99.90
13711;DHT22;6927;51.256;9.410;2023-07-28T12:34:50;25.20;99.90
13711;DHT22;6927;51.256;9.410;2023-07-28T12:37:19;25.50;99.90
13711;DHT22;6927;51.256;9.410;2023-07-28T12:39:45;25.60;99.90
13711;DHT22;6927;51.256;9.410;2023-07-28T12:42:11;25.60;99.90
13711;DHT22;6927;51.256;9.410;2023-07-28T12:44:38;25.60;99.90
13711;DHT22;6927;51.256;9.410;2023-07-28T12:47:04;25.50;99.90
13711;DHT22;6927;51.256;9.410;2023-07-28T12:49:30;25.50;99.90
13711;DHT22;6927;51.256;9.410;2023-07-28T12:51:57;25.50;99.90
13711;DHT22;6927;51.256;9.410;2023-07-28T12:54:23;25.50;99.90
13711;DHT22;6927;51.256;9.410;2023-07-28T12:56:50;25.50;99.90
13711;DHT22;6927;51.256;9.410;2023-07-28T12:59:16;25.70;99.90
13711;DHT22;6927;51.256;9.410;2023-07-28T13:01:42;25.80;99.90
13711;DHT22;6927;51.256;9.410;2023-07-28T13:04:07;25.90;99.90
13711;DHT22;6927;51.256;9.410;2023-07-28T13:06:33;25.80;99.90
13711;DHT22;6927;51.256;9.410;2023-07-28T13:08:59;25.90;99.90
13711;DHT22;6927;51.256;9.410;2023-07-28T13:11:24;26.10;99.90
13711;DHT22;6927;51.256;9.410;2023-07-28T13:13:50;25.90;99.90
13711;DHT22;6927;51.256;9.410;2023-07-28T13:16:16;25.80;99.90
13711;DHT22;6927;51.256;9.410;2023-07-28T13:18:43;25.80;99.90
13711;DHT22;6927;51.256;9.410;2023-07-28T13:21:08;25.70;99.90
13711;DHT22;6927;51.256;9.410;2023-07-28T13:23:35;25.70;99.90
13711;DHT22;6927;51.256;9.410;2023-07-28T13:26:01;25.80;99.90
13711;DHT22;6927;51.256;9.410;2023-07-28T13:28:29;25.80;99.90
13711;DHT22;6927;51.256;9.410;2023-07-28T13:30:55;26.00;99.90
13711;DHT22;6927;51.256;9.410;2023-07-28T13:33:20;26.10;99.90
13711;DHT22;6927;51.256;9.410;2023-07-28T13:35:46;26.30;99.90
13711;DHT22;6927;51.256;9.410;2023-07-28T13:38:12;26.10;99.90
13711;DHT22;6927;51.256;9.410;2023-07-28T13:40:37;26.00;99.90
13711;DHT22;6927;51.256;9.410;2023-07-28T13:43:03;25.80;99.90
13711;DHT22;6927;51.256;9.410;2023-07-28T13:45:29;25.60;99.90
13711;DHT22;6927;51.256;9.410;2023-07-28T13:47:55;25.50;99.90
13711;DHT22;6927;51.256;9.410;2023-07-28T13:50:21;25.30;99.90
13711;DHT22;6927;51.256;9.410;2023-07-28T13:52:46;25.10;99.90
13711;DHT22;6927;51.256;9.410;2023-07-28T13:55:12;25.00;99.90
13711;DHT22;6927;51.256;9.410;2023-07-28T13:57:38;25.30;99.90
13711;DHT22;6927;51.256;9.410;2023-07-28T14:00:05;25.50;99.90
13711;DHT22;6927;51.256;9.410;2023-07-28T14:02:38;25.50;99.90
13711;DHT22;6927;51.256;9.410;2023-07-28T14:05:04;25.80;99.90
13711;DHT22;6927;51.256;9.410;2023-07-28T14:07:31;26.00;99.90
13711;DHT22;6927;51.256;9.410;2023-07-28T14:09:56;26.00;99.90
13711;DHT22;6927;51.256;9.410;2023-07-28T14:12:22;25.90;99.90
13711;DHT22;6927;51.256;9.410;2023-07-28T14:14:48;25.80;99.90
13711;DHT22;6927;51.256;9.410;2023-07-28T14:17:15;25.70;99.90
13711;DHT22;6927;51.256;9.410;2023-07-28T14:19:41;25.60;99.90
13711;DHT22;6927;51.256;9.410;2023-07-28T14:22:07;25.70;99.90
13711;DHT22;6927;51.256;9.410;2023-07-28T14:24:33;25.80;99.90
13711;DHT22;6927;51.256;9.410;2023-07-28T14:26:59;25.90;99.90
13711;DHT22;6927;51.256;9.410;2023-07-28T14:29:25;26.10;99.90
13711;DHT22;6927;51.256;9.410;2023-07-28T14:31:51;26.30;99.90
13711;DHT22;6927;51.256;9.410;2023-07-28T14:34:17;26.10;99.90
13711;DHT22;6927;51.256;9.410;2023-07-28T14:36:43;26.00;99.90
13711;DHT22;6927;51.256;9.410;2023-07-28T14:39:08;25.90;99.90
13711;DHT22;6927;51.256;9.410;2023-07-28T14:41:35;26.00;99.90
13711;DHT22;6927;51.256;9.410;2023-07-28T14:44:00;26.10;99.90
13711;DHT22;6927;51.256;9.410;2023-07-28T14:46:26;26.10;99.90
13711;DHT22;6927;51.256;9.410;2023-07-28T14:48:52;26.20;99.90
13711;DHT22;6927;51.256;9.410;2023-07-28T14:51:18;26.30;99.90
13711;DHT22;6927;51.256;9.410;2023-07-28T14:53:43;26.40;99.90
13711;DHT22;6927;51.256;9.410;2023-07-28T14:56:12;26.50;99.90
13711;DHT22;6927;51.256;9.410;2023-07-28T14:58:38;26.40;99.90
13711;DHT22;6927;51.256;9.410;2023-07-28T15:01:04;26.20;99.90
13711;DHT22;6927;51.256;9.410;2023-07-28T15:03:31;26.10;99.90
13711;DHT22;6927;51.256;9.410;2023-07-28T15:05:57;26.00;99.90
13711;DHT22;6927;51.256;9.410;2023-07-28T15:08:24;26.00;99.90
13711;DHT22;6927;51.256;9.410;2023-07-28T15:10:50;26.10;99.90
13711;DHT22;6927;51.256;9.410;2023-07-28T15:13:16;26.10;99.90
13711;DHT22;6927;51.256;9.410;2023-07-28T15:15:42;26.20;99.90
13711;DHT22;6927;51.256;9.410;2023-07-28T15:18:08;26.10;99.90
13711;DHT22;6927;51.256;9.410;2023-07-28T15:20:35;26.00;99.90
13711;DHT22;6927;51.256;9.410;2023-07-28T15:23:01;25.80;99.90
13711;DHT22;6927;51.256;9.410;2023-07-28T15:25:27;25.60;99.90
13711;DHT22;6927;51.256;9.410;2023-07-28T15:27:53;25.60;99.90
13711;DHT22;6927;51.256;9.410;2023-07-28T15:30:18;25.60;99.90
13711;DHT22;6927;51.256;9.410;2023-07-28T15:32:44;25.70;99.90
13711;DHT22;6927;51.256;9.410;2023-07-28T15:35:09;25.70;99.90
13711;DHT22;6927;51.256;9.410;2023-07-28T15:37:36;25.90;99.90
13711;DHT22;6927;51.256;9.410;2023-07-28T15:40:03;26.20;99.90
13711;DHT22;6927;51.256;9.410;2023-07-28T15:42:29;26.40;99.90
13711;DHT22;6927;51.256;9.410;2023-07-28T15:44:54;26.60;99.90
13711;DHT22;6927;51.256;9.410;2023-07-28T15:47:20;26.60;99.90
13711;DHT22;6927;51.256;9.410;2023-07-28T15:49:46;26.60;99.90
13711;DHT22;6927;51.256;9.410;2023-07-28T15:52:11;26.50;99.90
13711;DHT22;6927;51.256;9.410;2023-07-28T15:54:37;26.30;99.90
13711;DHT22;6927;51.256;9.410;2023-07-28T15:57:02;26.10;99.90
13711;DHT22;6927;51.256;9.410;2023-07-28T15:59:31;25.70;99.90
13711;DHT22;6927;51.256;9.410;2023-07-28T16:01:57;25.50;99.90
13711;DHT22;6927;51.256;9.410;2023-07-28T16:04:23;25.20;99.90